createdAt,value
2018-06-10T00:00:57.858Z,21.11
2018-06-10T00:01:57.859Z,21.03
2018-06-10T00:02:57.859Z,21.08
2018-06-10T00:03:57.859Z,21.01
2018-06-10T00:04:57.858Z,21.00
2018-06-10T00:05:57.860Z,20.91
2018-06-10T00:06:57.859Z,20.96
2018-06-10T00:07:57.859Z,20.93
2018-06-10T00:08:57.863Z,20.93
2018-06-10T00:09:57.859Z,20.91
2018-06-10T00:10:57.860Z,21.01
2018-06-10T00:11:57.861Z,20.85
2018-06-10T00:12:57.860Z,20.91
2018-06-10T00:13:57.859Z,20.90
2018-06-10T00:14:57.861Z,20.83
2018-06-10T00:15:57.860Z,20.88
2018-06-10T00:16:57.863Z,20.94
2018-06-10T00:17:57.861Z,20.85
2018-06-10T00:18:57.861Z,20.91
2018-06-10T00:19:57.861Z,20.91
2018-06-10T00:20:57.861Z,20.83
2018-06-10T00:21:57.863Z,20.85
2018-06-10T00:22:57.865Z,20.82
2018-06-10T00:23:57.861Z,20.78
2018-06-10T00:24:57.860Z,20.81
2018-06-10T00:25:57.860Z,20.66
2018-06-10T00:26:57.861Z,20.68
2018-06-10T00:27:57.861Z,20.53
2018-06-10T00:28:57.861Z,20.42
2018-06-10T00:29:57.861Z,20.25
2018-06-10T00:30:57.860Z,20.31
2018-06-10T00:31:57.861Z,20.19
2018-06-10T00:32:57.859Z,20.12
2018-06-10T00:33:57.860Z,20.04
2018-06-10T00:34:57.859Z,20.08
2018-06-10T00:35:57.859Z,20.22
2018-06-10T00:36:57.858Z,20.13
2018-06-10T00:37:57.858Z,20.00
2018-06-10T00:38:57.858Z,20.08
2018-06-10T00:39:57.857Z,19.95
2018-06-10T00:40:57.855Z,19.95
2018-06-10T00:41:57.855Z,19.98
2018-06-10T00:42:57.855Z,19.95
2018-06-10T00:43:57.854Z,19.83
2018-06-10T00:44:57.853Z,20.00
2018-06-10T00:45:57.853Z,19.90
2018-06-10T00:46:57.852Z,19.92
2018-06-10T00:47:57.854Z,19.97
2018-06-10T00:48:57.850Z,19.97
2018-06-10T00:49:57.850Z,20.00
2018-06-10T00:50:57.849Z,20.04
2018-06-10T00:51:57.849Z,19.98
2018-06-10T00:52:57.847Z,19.98
2018-06-10T00:53:57.847Z,19.98
2018-06-10T00:54:57.846Z,20.00
2018-06-10T00:55:57.845Z,20.01
2018-06-10T00:56:57.843Z,20.01
2018-06-10T00:57:57.843Z,19.94
2018-06-10T00:58:57.845Z,20.00
2018-06-10T00:59:57.843Z,20.00
2018-06-10T01:00:57.843Z,20.02
2018-06-10T01:01:57.847Z,20.15
2018-06-10T01:02:57.842Z,20.12
2018-06-10T01:03:57.838Z,20.12
2018-06-10T01:04:57.836Z,20.08
2018-06-10T01:05:57.836Z,20.13
2018-06-10T01:06:57.835Z,20.13
2018-06-10T01:07:57.834Z,20.13
2018-06-10T01:08:57.881Z,20.07
2018-06-10T01:09:57.833Z,20.20
2018-06-10T01:10:57.832Z,20.22
2018-06-10T01:11:57.831Z,20.13
2018-06-10T01:12:57.829Z,20.12
2018-06-10T01:13:57.829Z,20.08
2018-06-10T01:14:57.829Z,20.12
2018-06-10T01:15:57.828Z,20.16
2018-06-10T01:16:57.826Z,20.20
2018-06-10T01:17:57.826Z,20.12
2018-06-10T01:18:57.827Z,20.15
2018-06-10T01:19:57.827Z,20.17
2018-06-10T01:20:57.830Z,20.17
2018-06-10T01:21:57.826Z,20.17
2018-06-10T01:22:57.823Z,20.17
2018-06-10T01:23:57.822Z,20.08
2018-06-10T01:24:57.823Z,20.16
2018-06-10T01:25:57.820Z,20.16
2018-06-10T01:26:57.819Z,20.17
2018-06-10T01:27:57.820Z,20.13
2018-06-10T01:28:57.822Z,20.19
2018-06-10T01:29:57.817Z,20.22
2018-06-10T01:30:57.817Z,20.13
2018-06-10T01:31:57.820Z,20.20
2018-06-10T01:32:57.815Z,20.17
2018-06-10T01:33:57.819Z,20.12
2018-06-10T01:34:57.814Z,20.08
2018-06-10T01:35:57.814Z,20.16
2018-06-10T01:36:57.812Z,20.19
2018-06-10T01:37:57.813Z,20.12
2018-06-10T01:38:57.811Z,20.08
2018-06-10T01:39:57.817Z,20.04
2018-06-10T01:40:57.810Z,20.07
2018-06-10T01:41:57.809Z,20.01
2018-06-10T01:42:57.809Z,20.04
2018-06-10T01:43:57.810Z,19.98
2018-06-10T01:44:57.807Z,20.05
2018-06-10T01:45:57.811Z,20.08
2018-06-10T01:46:57.813Z,20.02
2018-06-10T01:47:57.811Z,20.12
2018-06-10T01:48:57.809Z,20.02
2018-06-10T01:49:57.804Z,19.98
2018-06-10T01:50:57.804Z,20.01
2018-06-10T01:51:57.805Z,20.04
2018-06-10T01:52:57.803Z,20.05
2018-06-10T01:53:57.806Z,20.02
2018-06-10T01:54:57.807Z,20.02
2018-06-10T01:55:57.806Z,19.95
2018-06-10T01:56:57.803Z,19.98
2018-06-10T01:57:57.805Z,20.05
2018-06-10T01:58:57.809Z,20.07
2018-06-10T01:59:57.804Z,20.08
2018-06-10T02:00:57.803Z,20.08
2018-06-10T02:01:57.798Z,20.16
2018-06-10T02:02:57.798Z,20.08
2018-06-10T02:03:57.801Z,20.16
2018-06-10T02:04:57.798Z,20.05
2018-06-10T02:05:57.804Z,20.05
2018-06-10T02:06:57.802Z,20.05
2018-06-10T02:07:57.801Z,20.05
2018-06-10T02:08:57.799Z,20.07
2018-06-10T02:09:57.796Z,20.04
2018-06-10T02:10:57.794Z,20.08
2018-06-10T02:11:57.799Z,20.08
2018-06-10T02:12:57.801Z,20.12
2018-06-10T02:13:57.793Z,20.12
2018-06-10T02:14:57.793Z,20.13
2018-06-10T02:15:57.793Z,20.16
2018-06-10T02:16:57.792Z,20.07
2018-06-10T02:17:57.795Z,20.16
2018-06-10T02:18:57.796Z,20.13
2018-06-10T02:19:57.795Z,20.16
2018-06-10T02:20:57.794Z,20.02
2018-06-10T02:21:57.790Z,20.13
2018-06-10T02:22:57.789Z,20.17
2018-06-10T02:23:57.791Z,20.13
2018-06-10T02:24:57.788Z,20.16
2018-06-10T02:25:57.792Z,20.13
2018-06-10T02:26:57.792Z,20.15
2018-06-10T02:27:57.787Z,20.20
2018-06-10T02:28:57.787Z,20.17
2018-06-10T02:29:57.790Z,20.10
2018-06-10T02:30:57.789Z,20.10
2018-06-10T02:31:57.792Z,20.02
2018-06-10T02:32:57.806Z,20.10
2018-06-10T02:33:57.784Z,20.04
2018-06-10T02:34:57.784Z,20.07
2018-06-10T02:35:57.784Z,19.92
2018-06-10T02:36:57.783Z,20.07
2018-06-10T02:37:57.789Z,20.02
2018-06-10T02:38:57.793Z,20.05
2018-06-10T02:39:57.785Z,20.00
2018-06-10T02:40:57.785Z,20.05
2018-06-10T02:41:57.780Z,20.01
2018-06-10T02:42:57.780Z,20.01
2018-06-10T02:43:57.784Z,20.02
2018-06-10T02:44:57.784Z,20.04
2018-06-10T02:45:57.778Z,20.04
2018-06-10T02:46:57.777Z,20.00
2018-06-10T02:47:57.785Z,20.01
2018-06-10T02:48:57.778Z,19.92
2018-06-10T02:49:57.782Z,20.00
2018-06-10T02:50:57.781Z,19.94
2018-06-10T02:51:57.781Z,19.98
2018-06-10T02:52:57.779Z,19.92
2018-06-10T02:53:57.776Z,19.87
2018-06-10T02:54:57.773Z,19.97
2018-06-10T02:55:57.772Z,19.92
2018-06-10T02:56:57.772Z,19.79
2018-06-10T02:57:57.776Z,19.72
2018-06-10T02:58:57.774Z,19.76
2018-06-10T02:59:57.770Z,19.67
2018-06-10T03:00:57.768Z,19.75
2018-06-10T03:01:57.777Z,19.71
2018-06-10T03:02:57.773Z,19.67
2018-06-10T03:03:57.772Z,19.80
2018-06-10T03:04:57.771Z,19.68
2018-06-10T03:05:57.765Z,19.70
2018-06-10T03:06:57.766Z,19.68
2018-06-10T03:07:57.803Z,19.70
2018-06-10T03:08:57.764Z,19.68
2018-06-10T03:09:57.768Z,19.75
2018-06-10T03:10:57.766Z,19.67
2018-06-10T03:11:57.769Z,19.71
2018-06-10T03:12:57.765Z,19.70
2018-06-10T03:13:57.761Z,19.71
2018-06-10T03:14:57.761Z,19.71
2018-06-10T03:15:57.764Z,19.70
2018-06-10T03:16:57.765Z,19.64
2018-06-10T03:17:57.757Z,19.70
2018-06-10T03:18:57.756Z,19.70
2018-06-10T03:19:57.756Z,19.65
2018-06-10T03:20:57.755Z,19.70
2018-06-10T03:21:57.758Z,19.61
2018-06-10T03:22:57.757Z,19.68
2018-06-10T03:23:57.761Z,19.71
2018-06-10T03:24:57.755Z,19.70
2018-06-10T03:25:57.751Z,19.71
2018-06-10T03:26:57.753Z,19.68
2018-06-10T03:27:57.749Z,19.72
2018-06-10T03:28:57.753Z,19.64
2018-06-10T03:29:57.754Z,19.62
2018-06-10T03:30:57.752Z,19.58
2018-06-10T03:31:57.753Z,19.55
2018-06-10T03:32:57.747Z,19.52
2018-06-10T03:33:57.749Z,19.49
2018-06-10T03:34:57.749Z,19.47
2018-06-10T03:35:57.748Z,19.45
2018-06-10T03:36:57.747Z,19.49
2018-06-10T03:37:57.741Z,19.47
2018-06-10T03:38:57.741Z,19.46
2018-06-10T03:39:57.740Z,19.45
2018-06-10T03:40:57.739Z,19.49
2018-06-10T03:41:57.742Z,19.50
2018-06-10T03:42:57.743Z,19.53
2018-06-10T03:43:57.743Z,19.46
2018-06-10T03:44:57.741Z,19.50
2018-06-10T03:45:57.737Z,19.50
2018-06-10T03:46:57.735Z,19.58
2018-06-10T03:47:57.740Z,19.52
2018-06-10T03:48:57.739Z,19.47
2018-06-10T03:49:57.733Z,19.45
2018-06-10T03:50:57.733Z,19.40
2018-06-10T03:51:57.731Z,19.40
2018-06-10T03:52:57.733Z,19.38
2018-06-10T03:53:57.734Z,19.43
2018-06-10T03:54:57.733Z,19.45
2018-06-10T03:55:57.734Z,19.43
2018-06-10T03:56:57.731Z,19.49
2018-06-10T03:57:57.726Z,19.55
2018-06-10T03:58:57.726Z,19.57
2018-06-10T03:59:57.726Z,19.55
2018-06-10T04:00:57.725Z,19.55
2018-06-10T04:01:57.729Z,19.61
2018-06-10T04:02:57.729Z,19.67
2018-06-10T04:03:57.723Z,19.70
2018-06-10T04:04:57.721Z,19.67
2018-06-10T04:05:57.729Z,19.64
2018-06-10T04:06:57.726Z,19.68
2018-06-10T04:07:57.724Z,19.68
2018-06-10T04:08:57.723Z,19.67
2018-06-10T04:09:57.719Z,19.68
2018-06-10T04:10:57.718Z,19.71
2018-06-10T04:11:57.717Z,19.72
2018-06-10T04:12:57.717Z,19.64
2018-06-10T04:13:57.722Z,19.71
2018-06-10T04:14:57.722Z,19.68
2018-06-10T04:15:57.719Z,19.72
2018-06-10T04:16:57.718Z,19.76
2018-06-10T04:17:57.713Z,19.78
2018-06-10T04:18:57.715Z,19.76
2018-06-10T04:19:57.717Z,19.78
2018-06-10T04:20:57.715Z,19.76
2018-06-10T04:21:57.711Z,19.71
2018-06-10T04:22:57.712Z,19.76
2018-06-10T04:23:57.711Z,19.87
2018-06-10T04:24:57.709Z,19.87
2018-06-10T04:25:57.715Z,19.92
2018-06-10T04:26:57.715Z,19.87
2018-06-10T04:27:57.714Z,19.92
2018-06-10T04:28:57.713Z,20.05
2018-06-10T04:29:57.707Z,20.12
2018-06-10T04:30:57.706Z,20.08
2018-06-10T04:31:57.706Z,20.08
2018-06-10T04:32:57.707Z,20.16
2018-06-10T04:33:57.711Z,20.17
2018-06-10T04:34:57.709Z,20.30
2018-06-10T04:35:57.705Z,20.20
2018-06-10T04:36:57.703Z,20.31
2018-06-10T04:37:57.707Z,20.38
2018-06-10T04:38:57.708Z,20.40
2018-06-10T04:39:57.709Z,20.27
2018-06-10T04:40:57.707Z,20.40
2018-06-10T04:41:57.703Z,20.37
2018-06-10T04:42:57.702Z,20.38
2018-06-10T04:43:57.702Z,20.40
2018-06-10T04:44:57.701Z,20.33
2018-06-10T04:45:57.704Z,20.40
2018-06-10T04:46:57.705Z,20.50
2018-06-10T04:47:57.709Z,20.51
2018-06-10T04:48:57.704Z,20.42
2018-06-10T04:49:57.700Z,20.51
2018-06-10T04:50:57.700Z,20.48
2018-06-10T04:51:57.707Z,20.57
2018-06-10T04:52:57.730Z,20.56
2018-06-10T04:53:57.698Z,20.53
2018-06-10T04:54:57.698Z,20.48
2018-06-10T04:55:57.702Z,20.48
2018-06-10T04:56:57.697Z,20.54
2018-06-10T04:57:57.703Z,20.54
2018-06-10T04:58:57.702Z,20.64
2018-06-10T04:59:57.702Z,20.63
2018-06-10T05:00:57.701Z,20.58
2018-06-10T05:01:57.697Z,20.58
2018-06-10T05:02:57.699Z,20.58
2018-06-10T05:03:57.696Z,20.51
2018-06-10T05:04:57.696Z,20.64
2018-06-10T05:05:57.700Z,20.63
2018-06-10T05:06:57.700Z,20.71
2018-06-10T05:07:57.696Z,20.71
2018-06-10T05:08:57.695Z,20.69
2018-06-10T05:09:57.700Z,20.75
2018-06-10T05:10:57.702Z,20.66
2018-06-10T05:11:57.702Z,20.72
2018-06-10T05:12:57.699Z,20.72
2018-06-10T05:13:57.695Z,20.76
2018-06-10T05:14:57.697Z,20.68
2018-06-10T05:15:57.700Z,20.76
2018-06-10T05:16:57.699Z,20.72
2018-06-10T05:17:57.697Z,20.78
2018-06-10T05:18:57.695Z,20.76
2018-06-10T05:19:57.747Z,20.75
2018-06-10T05:20:57.695Z,20.82
2018-06-10T05:21:57.700Z,20.88
2018-06-10T05:22:57.700Z,20.88
2018-06-10T05:23:57.697Z,20.91
2018-06-10T05:24:57.695Z,20.96
2018-06-10T05:25:57.700Z,20.93
2018-06-10T05:26:57.701Z,21.06
2018-06-10T05:27:57.700Z,21.18
2018-06-10T05:28:57.700Z,21.30
2018-06-10T05:29:57.700Z,21.61
2018-06-10T05:30:57.698Z,21.75
2018-06-10T05:31:57.699Z,22.08
2018-06-10T05:32:57.697Z,22.23
2018-06-10T05:33:57.703Z,22.31
2018-06-10T05:34:57.703Z,22.44
2018-06-10T05:35:57.705Z,22.64
2018-06-10T05:36:57.710Z,22.70
2018-06-10T05:37:57.703Z,22.82
2018-06-10T05:38:57.703Z,22.88
2018-06-10T05:39:57.710Z,22.89
2018-06-10T05:40:57.709Z,23.15
2018-06-10T05:41:57.705Z,23.32
2018-06-10T05:42:57.707Z,23.44
2018-06-10T05:43:57.708Z,23.54
2018-06-10T05:44:57.708Z,23.72
2018-06-10T05:45:57.717Z,23.84
2018-06-10T05:46:57.717Z,24.02
2018-06-10T05:47:57.720Z,24.02
2018-06-10T05:48:57.720Z,24.16
2018-06-10T05:49:57.719Z,24.37
2018-06-10T05:50:57.720Z,24.36
2018-06-10T05:51:57.726Z,24.53
2018-06-10T05:52:57.724Z,24.56
2018-06-10T05:53:57.733Z,24.52
2018-06-10T05:54:57.735Z,24.46
2018-06-10T05:55:57.739Z,24.41
2018-06-10T05:56:57.735Z,24.34
2018-06-10T05:57:57.741Z,24.26
2018-06-10T05:58:57.744Z,24.14
2018-06-10T05:59:57.747Z,24.12
2018-06-10T06:00:57.749Z,24.05
2018-06-10T06:01:57.747Z,24.05
2018-06-10T06:02:57.749Z,24.00
2018-06-10T06:03:57.754Z,24.04
2018-06-10T06:04:57.755Z,23.99
2018-06-10T06:05:57.761Z,24.09
2018-06-10T06:06:57.764Z,24.15
2018-06-10T06:07:57.768Z,24.29
2018-06-10T06:08:57.773Z,24.36
2018-06-10T06:09:57.768Z,24.48
2018-06-10T06:10:57.771Z,24.36
2018-06-10T06:11:57.779Z,24.42
2018-06-10T06:12:57.780Z,24.42
2018-06-10T06:13:57.782Z,24.37
2018-06-10T06:14:57.781Z,24.44
2018-06-10T06:15:57.785Z,24.52
2018-06-10T06:16:57.787Z,24.53
2018-06-10T06:17:57.794Z,24.49
2018-06-10T06:18:57.799Z,24.59
2018-06-10T06:19:57.802Z,24.45
2018-06-10T06:20:57.803Z,24.31
2018-06-10T06:21:57.803Z,24.36
2018-06-10T06:22:57.805Z,24.41
2018-06-10T06:23:57.809Z,24.48
2018-06-10T06:24:57.811Z,24.55
2018-06-10T06:25:57.818Z,24.60
2018-06-10T06:26:57.822Z,24.60
2018-06-10T06:27:57.866Z,24.60
2018-06-10T06:28:57.823Z,24.56
2018-06-10T06:29:57.831Z,24.48
2018-06-10T06:30:57.835Z,24.33
2018-06-10T06:31:57.839Z,24.29
2018-06-10T06:32:57.840Z,24.21
2018-06-10T06:33:57.839Z,24.18
2018-06-10T06:34:57.842Z,24.11
2018-06-10T06:35:57.849Z,24.02
2018-06-10T06:36:57.848Z,24.04
2018-06-10T06:37:57.857Z,24.00
2018-06-10T06:38:57.859Z,24.09
2018-06-10T06:39:57.862Z,23.96
2018-06-10T06:40:57.864Z,23.97
2018-06-10T06:41:57.863Z,23.96
2018-06-10T06:42:57.866Z,24.05
2018-06-10T06:43:57.876Z,24.18
2018-06-10T06:44:57.875Z,24.11
2018-06-10T06:45:57.880Z,24.19
2018-06-10T06:46:57.878Z,24.21
2018-06-10T06:47:57.881Z,24.16
2018-06-10T06:48:57.886Z,24.15
2018-06-10T06:49:57.892Z,24.15
2018-06-10T06:50:57.894Z,24.18
2018-06-10T06:51:57.900Z,24.21
2018-06-10T06:52:57.902Z,24.18
2018-06-10T06:53:57.900Z,24.15
2018-06-10T06:54:57.902Z,24.19
2018-06-10T06:55:57.910Z,24.26
2018-06-10T06:56:57.909Z,24.23
2018-06-10T06:57:57.933Z,24.33
2018-06-10T06:58:57.919Z,24.29
2018-06-10T06:59:57.918Z,24.19
2018-06-10T07:00:57.921Z,24.19
2018-06-10T07:01:57.928Z,24.12
2018-06-10T07:02:57.931Z,24.06
2018-06-10T07:03:57.936Z,24.09
2018-06-10T07:04:57.937Z,23.93
2018-06-10T07:05:57.936Z,24.05
2018-06-10T07:06:57.939Z,23.87
2018-06-10T07:07:57.942Z,23.94
2018-06-10T07:08:57.945Z,23.94
2018-06-10T07:09:57.953Z,23.92
2018-06-10T07:10:57.955Z,23.82
2018-06-10T07:11:57.965Z,23.82
2018-06-10T07:12:57.960Z,23.81
2018-06-10T07:13:57.959Z,23.82
2018-06-10T07:14:57.962Z,23.81
2018-06-10T07:15:57.973Z,23.89
2018-06-10T07:16:57.973Z,23.92
2018-06-10T07:17:57.970Z,23.86
2018-06-10T07:18:57.971Z,23.79
2018-06-10T07:19:58.027Z,23.78
2018-06-10T07:20:57.976Z,23.82
2018-06-10T07:21:57.984Z,23.82
2018-06-10T07:22:57.987Z,23.87
2018-06-10T07:23:57.988Z,23.82
2018-06-10T07:24:57.991Z,23.82
2018-06-10T07:25:57.988Z,23.69
2018-06-10T07:26:57.991Z,23.75
2018-06-10T07:27:57.995Z,23.68
2018-06-10T07:28:57.998Z,23.56
2018-06-10T07:29:58.004Z,23.54
2018-06-10T07:30:58.007Z,23.47
2018-06-10T07:31:58.005Z,23.38
2018-06-10T07:32:58.006Z,23.34
2018-06-10T07:33:58.013Z,23.41
2018-06-10T07:34:58.016Z,23.41
2018-06-10T07:35:58.017Z,23.34
2018-06-10T07:36:58.021Z,23.34
2018-06-10T07:37:58.019Z,23.31
2018-06-10T07:38:58.020Z,23.35
2018-06-10T07:39:58.022Z,23.32
2018-06-10T07:40:58.027Z,23.31
2018-06-10T07:41:58.034Z,23.29
2018-06-10T07:42:58.032Z,23.25
2018-06-10T07:43:58.036Z,23.25
2018-06-10T07:44:58.037Z,23.35
2018-06-10T07:45:58.035Z,23.32
2018-06-10T07:46:58.036Z,23.22
2018-06-10T07:47:58.043Z,23.26
2018-06-10T07:48:58.045Z,23.41
2018-06-10T07:49:58.042Z,23.38
2018-06-10T07:50:58.053Z,23.49
2018-06-10T07:51:58.049Z,23.53
2018-06-10T07:52:58.052Z,23.62
2018-06-10T07:53:58.055Z,23.64
2018-06-10T07:54:58.057Z,23.72
2018-06-10T07:55:58.059Z,23.69
2018-06-10T07:56:58.061Z,23.68
2018-06-10T07:57:58.060Z,23.78
2018-06-10T07:58:58.062Z,23.81
2018-06-10T07:59:58.065Z,23.75
2018-06-10T08:00:58.067Z,23.77
2018-06-10T08:01:58.075Z,23.81
2018-06-10T08:02:58.077Z,23.78
2018-06-10T08:03:58.075Z,23.79
2018-06-10T08:04:58.076Z,23.86
2018-06-10T08:05:58.084Z,24.00
2018-06-10T08:06:58.086Z,23.90
2018-06-10T08:07:58.089Z,23.94
2018-06-10T08:08:58.091Z,24.06
2018-06-10T08:09:58.088Z,24.09
2018-06-10T08:10:58.092Z,24.12
2018-06-10T08:11:58.113Z,24.21
2018-06-10T08:12:58.097Z,24.29
2018-06-10T08:13:58.104Z,24.36
2018-06-10T08:14:58.107Z,24.34
2018-06-10T08:15:58.111Z,24.53
2018-06-10T08:16:58.113Z,24.55
2018-06-10T08:17:58.110Z,24.64
2018-06-10T08:18:58.113Z,24.67
2018-06-10T08:19:58.121Z,24.70
2018-06-10T08:20:58.125Z,24.90
2018-06-10T08:21:58.124Z,24.98
2018-06-10T08:22:58.127Z,25.04
2018-06-10T08:23:58.128Z,25.17
2018-06-10T08:24:58.131Z,25.26
2018-06-10T08:25:58.138Z,25.35
2018-06-10T08:26:58.145Z,25.63
2018-06-10T08:27:58.146Z,26.03
2018-06-10T08:28:58.148Z,26.73
2018-06-10T08:29:58.147Z,27.53
2018-06-10T08:30:58.154Z,28.11
2018-06-10T08:31:58.178Z,28.69
2018-06-10T08:32:58.159Z,29.12
2018-06-10T08:33:58.168Z,29.20
2018-06-10T08:34:58.172Z,29.42
2018-06-10T08:35:58.173Z,29.57
2018-06-10T08:36:58.179Z,29.88
2018-06-10T08:37:58.188Z,30.44
2018-06-10T08:38:58.195Z,30.46
2018-06-10T08:39:58.202Z,30.93
2018-06-10T08:40:58.206Z,31.04
2018-06-10T08:41:58.207Z,31.19
2018-06-10T08:42:58.214Z,31.19
2018-06-10T08:43:58.309Z,31.22
2018-06-10T08:44:58.227Z,30.97
2018-06-10T08:45:58.240Z,30.82
2018-06-10T08:46:58.247Z,30.98
2018-06-10T08:47:58.257Z,31.09
2018-06-10T08:48:58.262Z,31.09
2018-06-10T08:49:58.264Z,31.04
2018-06-10T08:50:58.273Z,31.25
2018-06-10T08:51:58.286Z,31.09
2018-06-10T08:52:58.291Z,31.07
2018-06-10T08:53:58.297Z,30.91
2018-06-10T08:54:58.304Z,30.64
2018-06-10T08:55:58.312Z,30.51
2018-06-10T08:56:58.376Z,30.26
2018-06-10T08:57:58.333Z,30.16
2018-06-10T08:58:58.344Z,30.44
2018-06-10T08:59:58.348Z,31.10
2018-06-10T09:00:58.355Z,31.72
2018-06-10T09:01:58.357Z,31.92
2018-06-10T09:02:58.365Z,32.12
2018-06-10T09:03:58.373Z,32.13
2018-06-10T09:04:58.386Z,32.50
2018-06-10T09:05:58.394Z,32.56
2018-06-10T09:06:58.402Z,32.66
2018-06-10T09:07:58.407Z,32.62
2018-06-10T09:08:58.415Z,32.50
2018-06-10T09:09:58.428Z,32.36
2018-06-10T09:10:58.444Z,32.34
2018-06-10T09:11:58.451Z,32.69
2018-06-10T09:12:58.460Z,33.02
2018-06-10T09:13:58.465Z,32.21
2018-06-10T09:14:58.472Z,32.34
2018-06-10T09:15:58.480Z,32.58
2018-06-10T09:16:58.489Z,32.59
2018-06-10T09:17:58.503Z,32.65
2018-06-10T09:18:58.514Z,32.54
2018-06-10T09:19:58.523Z,32.56
2018-06-10T09:20:58.532Z,31.99
2018-06-10T09:21:58.537Z,31.35
2018-06-10T09:22:58.548Z,31.49
2018-06-10T09:23:58.563Z,31.71
2018-06-10T09:24:58.573Z,31.45
2018-06-10T09:25:58.577Z,31.57
2018-06-10T09:26:58.588Z,31.59
2018-06-10T09:27:58.599Z,31.85
2018-06-10T09:28:58.612Z,32.21
2018-06-10T09:29:58.625Z,32.24
2018-06-10T09:30:58.632Z,32.24
2018-06-10T09:31:58.644Z,32.50
2018-06-10T09:32:58.653Z,32.91
2018-06-10T09:33:58.661Z,33.52
2018-06-10T09:34:58.669Z,33.71
2018-06-10T09:35:58.680Z,33.71
2018-06-10T09:36:58.689Z,33.50
2018-06-10T09:37:58.704Z,33.52
2018-06-10T09:38:58.715Z,33.55
2018-06-10T09:39:58.721Z,33.86
2018-06-10T09:40:58.732Z,34.15
2018-06-10T09:41:58.762Z,33.90
2018-06-10T09:42:58.759Z,32.99
2018-06-10T09:43:58.769Z,32.59
2018-06-10T09:44:58.779Z,32.34
2018-06-10T09:45:58.785Z,31.68
2018-06-10T09:46:58.795Z,31.00
2018-06-10T09:47:58.805Z,30.86
2018-06-10T09:48:58.814Z,30.79
2018-06-10T09:49:58.831Z,30.91
2018-06-10T09:50:58.840Z,30.73
2018-06-10T09:51:58.849Z,30.82
2018-06-10T09:52:58.858Z,31.01
2018-06-10T09:53:58.866Z,31.47
2018-06-10T09:54:58.872Z,31.65
2018-06-10T09:55:58.886Z,31.87
2018-06-10T09:56:58.894Z,31.78
2018-06-10T09:57:58.899Z,31.71
2018-06-10T09:58:58.909Z,31.50
2018-06-10T09:59:58.920Z,31.32
2018-06-10T10:00:58.927Z,31.30
2018-06-10T10:01:58.942Z,31.16
2018-06-10T10:02:58.952Z,31.05
2018-06-10T10:03:58.960Z,30.96
2018-06-10T10:04:58.968Z,30.93
2018-06-10T10:05:58.972Z,31.00
2018-06-10T10:06:58.984Z,30.90
2018-06-10T10:07:58.991Z,30.93
2018-06-10T10:08:58.998Z,30.96
2018-06-10T10:09:59.010Z,30.96
2018-06-10T10:10:59.019Z,31.09
2018-06-10T10:11:59.023Z,31.07
2018-06-10T10:12:59.030Z,31.16
2018-06-10T10:13:59.042Z,31.12
2018-06-10T10:14:59.054Z,30.98
2018-06-10T10:15:59.061Z,30.85
2018-06-10T10:16:59.067Z,30.94
2018-06-10T10:17:59.069Z,30.98
2018-06-10T10:18:59.078Z,31.35
2018-06-10T10:19:59.085Z,31.71
2018-06-10T10:20:59.091Z,32.19
2018-06-10T10:21:59.104Z,32.61
2018-06-10T10:22:59.113Z,32.85
2018-06-10T10:23:59.120Z,33.07
2018-06-10T10:24:59.129Z,33.41
2018-06-10T10:25:59.133Z,33.60
2018-06-10T10:26:59.141Z,34.37
2018-06-10T10:27:59.156Z,35.03
2018-06-10T10:28:59.164Z,35.56
2018-06-10T10:29:59.173Z,35.96
2018-06-10T10:30:59.181Z,35.85
2018-06-10T10:31:59.192Z,35.18
2018-06-10T10:32:59.200Z,35.81
2018-06-10T10:33:59.217Z,35.76
2018-06-10T10:34:59.233Z,35.64
2018-06-10T10:35:59.239Z,36.30
2018-06-10T10:36:59.250Z,36.83
2018-06-10T10:37:59.259Z,37.24
2018-06-10T10:38:59.272Z,37.80
2018-06-10T10:39:59.289Z,38.09
2018-06-10T10:40:59.298Z,37.87
2018-06-10T10:41:59.317Z,37.88
2018-06-10T10:42:59.330Z,37.63
2018-06-10T10:43:59.339Z,37.97
2018-06-10T10:44:59.354Z,37.75
2018-06-10T10:45:59.376Z,38.12
2018-06-10T10:46:59.386Z,37.91
2018-06-10T10:47:59.402Z,38.07
2018-06-10T10:48:59.477Z,38.38
2018-06-10T10:49:59.424Z,38.60
2018-06-10T10:50:59.440Z,38.77
2018-06-10T10:51:59.456Z,38.72
2018-06-10T10:52:59.472Z,38.87
2018-06-10T10:53:59.489Z,39.17
2018-06-10T10:54:59.503Z,39.05
2018-06-10T10:55:59.536Z,39.13
2018-06-10T10:56:59.534Z,39.19
2018-06-10T10:57:59.544Z,39.06
2018-06-10T10:58:59.560Z,38.90
2018-06-10T10:59:59.580Z,38.71
2018-06-10T11:00:59.596Z,38.49
2018-06-10T11:01:59.633Z,37.63
2018-06-10T11:02:59.621Z,37.43
2018-06-10T11:03:59.636Z,37.39
2018-06-10T11:04:59.650Z,37.28
2018-06-10T11:05:59.671Z,37.31
2018-06-10T11:06:59.685Z,37.27
2018-06-10T11:07:59.700Z,36.96
2018-06-10T11:08:59.716Z,36.78
2018-06-10T11:09:59.728Z,36.64
2018-06-10T11:10:59.739Z,36.46
2018-06-10T11:11:59.759Z,36.08
2018-06-10T11:12:59.770Z,35.62
2018-06-10T11:13:59.785Z,35.21
2018-06-10T11:14:59.800Z,35.03
2018-06-10T11:15:59.808Z,34.40
2018-06-10T11:16:59.820Z,34.03
2018-06-10T11:17:59.838Z,33.81
2018-06-10T11:18:59.850Z,33.59
2018-06-10T11:19:59.884Z,33.18
2018-06-10T11:20:59.873Z,32.91
2018-06-10T11:21:59.885Z,32.98
2018-06-10T11:22:59.892Z,33.05
2018-06-10T11:23:59.911Z,32.93
2018-06-10T11:24:59.916Z,32.96
2018-06-10T11:25:59.930Z,33.07
2018-06-10T11:26:59.985Z,33.28
2018-06-10T11:27:59.956Z,33.17
2018-06-10T11:28:59.963Z,33.02
2018-06-10T11:29:59.967Z,33.03
2018-06-10T11:30:59.978Z,33.12
2018-06-10T11:31:59.994Z,33.09
2018-06-10T11:33:00.004Z,33.29
2018-06-10T11:34:00.010Z,33.26
2018-06-10T11:35:00.031Z,33.29
2018-06-10T11:36:00.029Z,33.53
2018-06-10T11:37:00.040Z,33.65
2018-06-10T11:38:00.052Z,33.49
2018-06-10T11:39:00.063Z,33.40
2018-06-10T11:40:00.074Z,33.43
2018-06-10T11:41:00.082Z,33.28
2018-06-10T11:42:00.088Z,33.12
2018-06-10T11:43:00.097Z,33.09
2018-06-10T11:44:00.109Z,32.98
2018-06-10T11:45:00.122Z,32.83
2018-06-10T11:46:00.129Z,32.83
2018-06-10T11:47:00.138Z,32.77
2018-06-10T11:48:00.143Z,32.68
2018-06-10T11:49:00.152Z,32.50
2018-06-10T11:50:00.166Z,32.32
2018-06-10T11:51:00.174Z,32.43
2018-06-10T11:52:00.219Z,32.28
2018-06-10T11:53:00.194Z,32.50
2018-06-10T11:54:00.197Z,32.71
2018-06-10T11:55:00.249Z,32.84
2018-06-10T11:56:00.216Z,32.95
2018-06-10T11:57:00.223Z,33.00
2018-06-10T11:58:00.315Z,32.91
2018-06-10T11:59:00.246Z,33.09
2018-06-10T12:00:00.256Z,33.11
2018-06-10T12:01:00.263Z,32.85
2018-06-10T12:02:00.355Z,32.46
2018-06-10T12:03:00.276Z,32.10
2018-06-10T12:04:00.290Z,32.06
2018-06-10T12:05:00.298Z,32.05
2018-06-10T12:06:00.303Z,32.27
2018-06-10T12:07:00.311Z,32.36
2018-06-10T12:08:00.325Z,32.50
2018-06-10T12:09:00.329Z,32.53
2018-06-10T12:10:00.341Z,32.62
2018-06-10T12:11:00.351Z,32.99
2018-06-10T12:12:00.361Z,32.73
2018-06-10T12:13:00.368Z,32.56
2018-06-10T12:14:00.371Z,32.59
2018-06-10T12:15:00.380Z,32.73
2018-06-10T12:16:00.390Z,32.63
2018-06-10T12:17:00.402Z,32.83
2018-06-10T12:18:00.410Z,32.95
2018-06-10T12:19:00.419Z,33.02
2018-06-10T12:20:00.424Z,33.09
2018-06-10T12:21:00.434Z,32.87
2018-06-10T12:22:00.448Z,32.85
2018-06-10T12:23:00.455Z,32.51
2018-06-10T12:24:00.464Z,32.50
2018-06-10T12:25:00.472Z,32.53
2018-06-10T12:26:00.477Z,32.72
2018-06-10T12:27:00.485Z,32.90
2018-06-10T12:28:00.493Z,32.98
2018-06-10T12:29:00.506Z,32.90
2018-06-10T12:30:00.516Z,32.63
2018-06-10T12:31:00.525Z,32.65
2018-06-10T12:32:00.533Z,32.49
2018-06-10T12:33:00.540Z,32.41
2018-06-10T12:34:00.548Z,32.32
2018-06-10T12:35:00.554Z,32.14
2018-06-10T12:36:00.568Z,31.94
2018-06-10T12:37:00.575Z,31.85
2018-06-10T12:38:00.580Z,31.78
2018-06-10T12:39:00.588Z,31.78
2018-06-10T12:40:00.597Z,31.88
2018-06-10T12:41:00.609Z,31.65
2018-06-10T12:42:00.619Z,31.78
2018-06-10T12:43:00.627Z,31.46
2018-06-10T12:44:00.634Z,30.76
2018-06-10T12:45:00.642Z,30.51
2018-06-10T12:46:00.647Z,30.36
2018-06-10T12:47:00.655Z,30.18
2018-06-10T12:48:00.663Z,30.32
2018-06-10T12:49:00.727Z,30.49
2018-06-10T12:50:00.684Z,30.82
2018-06-10T12:51:00.691Z,31.01
2018-06-10T12:52:00.694Z,31.01
2018-06-10T12:53:00.701Z,31.10